sensor_id;sensor_type;location;lat;lon;timestamp;pressure;altitude;pressure_sealevel;temperature;humidity
61436;BME280;47304;47.456;19.160;2023-04-03T00:01:51;100148.52;;;7.12;58.39
61436;BME280;47304;47.456;19.160;2023-04-03T00:04:17;100150.04;;;7.07;58.49
61436;BME280;47304;47.456;19.160;2023-04-03T00:06:44;100150.52;;;7.03;58.32
61436;BME280;47304;47.456;19.160;2023-04-03T00:09:10;100150.84;;;7.01;58.71
61436;BME280;47304;47.456;19.160;2023-04-03T00:11:37;100154.67;;;7.01;58.78
61436;BME280;47304;47.456;19.160;2023-04-03T00:14:03;100151.73;;;7.02;58.54
61436;BME280;47304;47.456;19.160;2023-04-03T00:16:30;100153.96;;;7.00;58.34
61436;BME280;47304;47.456;19.160;2023-04-03T00:18:56;100152.19;;;6.97;58.26
61436;BME280;47304;47.456;19.160;2023-04-03T00:21:23;100155.50;;;6.96;58.39
61436;BME280;47304;47.456;19.160;2023-04-03T00:23:49;100161.23;;;6.94;58.29
61436;BME280;47304;47.456;19.160;2023-04-03T00:26:16;100155.48;;;6.94;58.34
61436;BME280;47304;47.456;19.160;2023-04-03T00:28:43;100162.12;;;6.97;58.33
61436;BME280;47304;47.456;19.160;2023-04-03T00:31:09;100160.73;;;6.95;57.88
61436;BME280;47304;47.456;19.160;2023-04-03T00:33:36;100158.93;;;6.92;57.88
61436;BME280;47304;47.456;19.160;2023-04-03T00:36:07;100157.33;;;6.89;57.67
61436;BME280;47304;47.456;19.160;2023-04-03T00:38:34;100157.45;;;6.84;57.74
61436;BME280;47304;47.456;19.160;2023-04-03T00:41:01;100156.37;;;6.81;57.88
61436;BME280;47304;47.456;19.160;2023-04-03T00:43:28;100156.89;;;6.81;57.90
61436;BME280;47304;47.456;19.160;2023-04-03T00:45:56;100153.23;;;6.79;57.79
61436;BME280;47304;47.456;19.160;2023-04-03T00:48:37;100155.27;;;6.76;57.75
61436;BME280;47304;47.456;19.160;2023-04-03T00:51:07;100154.52;;;6.71;57.60
61436;BME280;47304;47.456;19.160;2023-04-03T00:53:56;100161.48;;;6.70;57.90
61436;BME280;47304;47.456;19.160;2023-04-03T00:56:26;100162.64;;;6.67;57.59
61436;BME280;47304;47.456;19.160;2023-04-03T00:59:15;100169.92;;;6.63;57.80
61436;BME280;47304;47.456;19.160;2023-04-03T01:01:43;100171.48;;;6.63;58.01
61436;BME280;47304;47.456;19.160;2023-04-03T01:04:45;100170.21;;;6.59;57.61
61436;BME280;47304;47.456;19.160;2023-04-03T01:07:18;100170.54;;;6.57;57.79
61436;BME280;47304;47.456;19.160;2023-04-03T01:09:48;100169.11;;;6.55;57.69
61436;BME280;47304;47.456;19.160;2023-04-03T01:12:17;100171.34;;;6.52;57.79
61436;BME280;47304;47.456;19.160;2023-04-03T01:14:45;100167.31;;;6.50;57.74
61436;BME280;47304;47.456;19.160;2023-04-03T01:17:48;100170.41;;;6.48;57.66
61436;BME280;47304;47.456;19.160;2023-04-03T01:20:31;100170.93;;;6.48;57.82
61436;BME280;47304;47.456;19.160;2023-04-03T01:25:45;100175.15;;;6.50;57.69
61436;BME280;47304;47.456;19.160;2023-04-03T01:28:25;100171.86;;;6.52;57.56
61436;BME280;47304;47.456;19.160;2023-04-03T01:33:37;100173.45;;;6.54;57.33
61436;BME280;47304;47.456;19.160;2023-04-03T01:36:04;100176.58;;;6.54;57.35
61436;BME280;47304;47.456;19.160;2023-04-03T01:38:31;100175.71;;;6.54;57.14
61436;BME280;47304;47.456;19.160;2023-04-03T01:40:58;100175.16;;;6.52;56.77
61436;BME280;47304;47.456;19.160;2023-04-03T01:43:24;100173.91;;;6.49;56.70
61436;BME280;47304;47.456;19.160;2023-04-03T01:45:51;100177.52;;;6.46;56.66
61436;BME280;47304;47.456;19.160;2023-04-03T01:48:17;100184.10;;;6.43;56.68
61436;BME280;47304;47.456;19.160;2023-04-03T01:50:44;100181.81;;;6.40;56.51
61436;BME280;47304;47.456;19.160;2023-04-03T01:53:10;100187.34;;;6.38;56.49
61436;BME280;47304;47.456;19.160;2023-04-03T01:55:37;100188.38;;;6.38;56.58
61436;BME280;47304;47.456;19.160;2023-04-03T01:58:04;100188.54;;;6.37;56.56
61436;BME280;47304;47.456;19.160;2023-04-03T02:00:30;100187.31;;;6.36;56.67
61436;BME280;47304;47.456;19.160;2023-04-03T02:02:57;100188.20;;;6.38;56.72
61436;BME280;47304;47.456;19.160;2023-04-03T02:05:23;100183.70;;;6.39;56.55
61436;BME280;47304;47.456;19.160;2023-04-03T02:07:50;100184.38;;;6.38;56.31
61436;BME280;47304;47.456;19.160;2023-04-03T02:10:16;100188.73;;;6.38;56.38
61436;BME280;47304;47.456;19.160;2023-04-03T02:12:43;100191.33;;;6.36;56.39
61436;BME280;47304;47.456;19.160;2023-04-03T02:15:09;100195.49;;;6.36;56.19
61436;BME280;47304;47.456;19.160;2023-04-03T02:17:36;100197.38;;;6.34;56.28
61436;BME280;47304;47.456;19.160;2023-04-03T02:20:03;100195.09;;;6.32;56.31
61436;BME280;47304;47.456;19.160;2023-04-03T02:22:30;100198.37;;;6.31;56.25
61436;BME280;47304;47.456;19.160;2023-04-03T02:24:57;100199.24;;;6.30;56.20
61436;BME280;47304;47.456;19.160;2023-04-03T02:27:24;100200.61;;;6.29;55.95
61436;BME280;47304;47.456;19.160;2023-04-03T02:29:50;100196.59;;;6.27;55.82
61436;BME280;47304;47.456;19.160;2023-04-03T02:32:17;100193.25;;;6.25;55.85
61436;BME280;47304;47.456;19.160;2023-04-03T02:34:43;100193.22;;;6.23;56.20
61436;BME280;47304;47.456;19.160;2023-04-03T02:37:10;100191.66;;;6.23;56.21
61436;BME280;47304;47.456;19.160;2023-04-03T02:39:36;100191.50;;;6.25;56.29
61436;BME280;47304;47.456;19.160;2023-04-03T02:42:03;100194.11;;;6.25;56.12
61436;BME280;47304;47.456;19.160;2023-04-03T02:44:30;100194.96;;;6.23;55.81
61436;BME280;47304;47.456;19.160;2023-04-03T02:46:56;100192.11;;;6.19;55.86
61436;BME280;47304;47.456;19.160;2023-04-03T02:49:23;100199.74;;;6.17;55.99
61436;BME280;47304;47.456;19.160;2023-04-03T02:51:49;100201.65;;;6.17;56.09
61436;BME280;47304;47.456;19.160;2023-04-03T02:54:16;100203.75;;;6.17;55.97
61436;BME280;47304;47.456;19.160;2023-04-03T02:56:43;100196.56;;;6.14;55.70
61436;BME280;47304;47.456;19.160;2023-04-03T02:59:09;100197.36;;;6.09;55.91
61436;BME280;47304;47.456;19.160;2023-04-03T03:01:36;100195.27;;;6.07;55.83
61436;BME280;47304;47.456;19.160;2023-04-03T03:04:02;100202.34;;;6.04;55.84
61436;BME280;47304;47.456;19.160;2023-04-03T03:06:29;100200.73;;;6.01;55.90
61436;BME280;47304;47.456;19.160;2023-04-03T03:08:55;100203.61;;;5.98;55.83
61436;BME280;47304;47.456;19.160;2023-04-03T03:11:22;100208.25;;;5.95;55.81
61436;BME280;47304;47.456;19.160;2023-04-03T03:13:48;100207.15;;;5.92;56.05
61436;BME280;47304;47.456;19.160;2023-04-03T03:16:15;100208.47;;;5.87;56.00
61436;BME280;47304;47.456;19.160;2023-04-03T03:18:41;100205.63;;;5.83;55.95
61436;BME280;47304;47.456;19.160;2023-04-03T03:21:09;100205.41;;;5.81;56.03
61436;BME280;47304;47.456;19.160;2023-04-03T03:23:36;100207.79;;;5.77;55.89
61436;BME280;47304;47.456;19.160;2023-04-03T03:26:05;100211.20;;;5.73;56.03
61436;BME280;47304;47.456;19.160;2023-04-03T03:28:32;100209.42;;;5.71;56.10
61436;BME280;47304;47.456;19.160;2023-04-03T03:30:59;100206.23;;;5.67;56.18
61436;BME280;47304;47.456;19.160;2023-04-03T03:33:26;100208.42;;;5.63;56.25
61436;BME280;47304;47.456;19.160;2023-04-03T03:35:53;100211.83;;;5.59;56.33
61436;BME280;47304;47.456;19.160;2023-04-03T03:38:20;100207.76;;;5.55;56.33
61436;BME280;47304;47.456;19.160;2023-04-03T03:40:48;100205.26;;;5.51;56.56
61436;BME280;47304;47.456;19.160;2023-04-03T03:43:15;100202.60;;;5.48;56.58
61436;BME280;47304;47.456;19.160;2023-04-03T03:45:42;100205.14;;;5.44;56.74
61436;BME280;47304;47.456;19.160;2023-04-03T03:48:09;100201.97;;;5.41;56.73
61436;BME280;47304;47.456;19.160;2023-04-03T03:50:35;100202.81;;;5.41;56.76
61436;BME280;47304;47.456;19.160;2023-04-03T03:53:02;100206.27;;;5.39;56.72
61436;BME280;47304;47.456;19.160;2023-04-03T03:55:28;100208.86;;;5.39;56.87
61436;BME280;47304;47.456;19.160;2023-04-03T03:57:55;100206.25;;;5.38;56.79
61436;BME280;47304;47.456;19.160;2023-04-03T04:00:21;100209.86;;;5.36;56.68
61436;BME280;47304;47.456;19.160;2023-04-03T04:02:48;100205.63;;;5.32;56.71
61436;BME280;47304;47.456;19.160;2023-04-03T04:05:15;100210.29;;;5.31;56.83
61436;BME280;47304;47.456;19.160;2023-04-03T04:07:41;100210.38;;;5.26;56.89
61436;BME280;47304;47.456;19.160;2023-04-03T04:10:08;100211.16;;;5.22;56.95
61436;BME280;47304;47.456;19.160;2023-04-03T04:12:35;100213.01;;;5.19;57.11
61436;BME280;47304;47.456;19.160;2023-04-03T04:15:02;100213.29;;;5.15;57.20
61436;BME280;47304;47.456;19.160;2023-04-03T04:17:29;100211.99;;;5.11;57.11
61436;BME280;47304;47.456;19.160;2023-04-03T04:19:55;100210.73;;;5.08;57.27
61436;BME280;47304;47.456;19.160;2023-04-03T04:22:22;100208.96;;;5.07;57.47
61436;BME280;47304;47.456;19.160;2023-04-03T04:24:48;100213.85;;;5.07;57.55
61436;BME280;47304;47.456;19.160;2023-04-03T04:27:15;100215.53;;;5.06;57.54
61436;BME280;47304;47.456;19.160;2023-04-03T04:29:41;100220.92;;;5.06;57.51
61436;BME280;47304;47.456;19.160;2023-04-03T04:32:08;100224.18;;;5.04;57.60
61436;BME280;47304;47.456;19.160;2023-04-03T04:34:34;100224.63;;;4.99;57.63
61436;BME280;47304;47.456;19.160;2023-04-03T04:37:01;100225.58;;;4.95;57.78
61436;BME280;47304;47.456;19.160;2023-04-03T04:39:27;100223.23;;;4.91;57.99
61436;BME280;47304;47.456;19.160;2023-04-03T04:41:54;100229.09;;;4.88;58.12
61436;BME280;47304;47.456;19.160;2023-04-03T04:44:20;100225.18;;;4.84;58.25
61436;BME280;47304;47.456;19.160;2023-04-03T04:46:47;100230.70;;;4.82;58.41
61436;BME280;47304;47.456;19.160;2023-04-03T04:49:16;100228.10;;;4.82;58.36
61436;BME280;47304;47.456;19.160;2023-04-03T04:51:45;100232.64;;;4.83;58.33
61436;BME280;47304;47.456;19.160;2023-04-03T04:54:17;100231.58;;;4.82;58.38
61436;BME280;47304;47.456;19.160;2023-04-03T04:56:44;100234.96;;;4.78;58.23
61436;BME280;47304;47.456;19.160;2023-04-03T04:59:11;100237.02;;;4.78;58.52
61436;BME280;47304;47.456;19.160;2023-04-03T05:01:38;100236.81;;;4.76;58.64
61436;BME280;47304;47.456;19.160;2023-04-03T05:04:04;100243.42;;;4.76;58.65
61436;BME280;47304;47.456;19.160;2023-04-03T05:06:31;100239.77;;;4.76;58.64
61436;BME280;47304;47.456;19.160;2023-04-03T05:08:58;100243.80;;;4.78;58.71
61436;BME280;47304;47.456;19.160;2023-04-03T05:11:25;100243.79;;;4.77;58.46
61436;BME280;47304;47.456;19.160;2023-04-03T05:13:51;100244.14;;;4.77;58.56
61436;BME280;47304;47.456;19.160;2023-04-03T05:16:18;100246.55;;;4.76;58.46
61436;BME280;47304;47.456;19.160;2023-04-03T05:18:44;100246.23;;;4.79;58.44
61436;BME280;47304;47.456;19.160;2023-04-03T05:21:11;100249.16;;;4.85;58.56
61436;BME280;47304;47.456;19.160;2023-04-03T05:23:38;100249.11;;;4.91;58.51
61436;BME280;47304;47.456;19.160;2023-04-03T05:26:05;100256.55;;;4.98;58.41
61436;BME280;47304;47.456;19.160;2023-04-03T05:28:31;100256.14;;;5.04;58.28
61436;BME280;47304;47.456;19.160;2023-04-03T05:30:58;100255.39;;;5.09;58.18
61436;BME280;47304;47.456;19.160;2023-04-03T05:33:25;100254.76;;;5.13;58.01
61436;BME280;47304;47.456;19.160;2023-04-03T05:35:53;100253.24;;;5.15;58.15
61436;BME280;47304;47.456;19.160;2023-04-03T05:38:20;100254.70;;;5.19;57.85
61436;BME280;47304;47.456;19.160;2023-04-03T05:40:46;100253.14;;;5.20;57.83
61436;BME280;47304;47.456;19.160;2023-04-03T05:43:13;100255.60;;;5.21;57.85
61436;BME280;47304;47.456;19.160;2023-04-03T05:45:39;100258.55;;;5.21;57.77
61436;BME280;47304;47.456;19.160;2023-04-03T05:48:06;100257.67;;;5.20;57.77
61436;BME280;47304;47.456;19.160;2023-04-03T05:50:33;100255.91;;;5.20;57.87
61436;BME280;47304;47.456;19.160;2023-04-03T05:52:59;100257.70;;;5.22;58.01
61436;BME280;47304;47.456;19.160;2023-04-03T05:55:28;100256.23;;;5.26;58.18
61436;BME280;47304;47.456;19.160;2023-04-03T05:57:54;100258.75;;;5.31;58.22
61436;BME280;47304;47.456;19.160;2023-04-03T06:00:21;100263.06;;;5.38;58.06
61436;BME280;47304;47.456;19.160;2023-04-03T06:02:47;100265.80;;;5.46;58.03
61436;BME280;47304;47.456;19.160;2023-04-03T06:05:14;100261.73;;;5.51;57.77
61436;BME280;47304;47.456;19.160;2023-04-03T06:07:41;100268.21;;;5.54;57.51
61436;BME280;47304;47.456;19.160;2023-04-03T06:10:08;100273.81;;;5.56;57.39
61436;BME280;47304;47.456;19.160;2023-04-03T06:12:34;100276.97;;;5.58;57.41
61436;BME280;47304;47.456;19.160;2023-04-03T06:15:01;100278.29;;;5.63;57.38
61436;BME280;47304;47.456;19.160;2023-04-03T06:17:28;100277.32;;;5.68;57.50
61436;BME280;47304;47.456;19.160;2023-04-03T06:19:54;100277.09;;;5.74;57.31
61436;BME280;47304;47.456;19.160;2023-04-03T06:22:21;100282.81;;;5.83;56.96
61436;BME280;47304;47.456;19.160;2023-04-03T06:24:47;100278.25;;;5.91;57.00
61436;BME280;47304;47.456;19.160;2023-04-03T06:27:14;100279.52;;;6.02;56.34
61436;BME280;47304;47.456;19.160;2023-04-03T06:29:40;100283.06;;;6.06;55.95
61436;BME280;47304;47.456;19.160;2023-04-03T06:32:07;100282.14;;;6.14;56.10
61436;BME280;47304;47.456;19.160;2023-04-03T06:34:33;100278.80;;;6.23;56.02
61436;BME280;47304;47.456;19.160;2023-04-03T06:37:00;100278.92;;;6.30;55.80
61436;BME280;47304;47.456;19.160;2023-04-03T06:39:27;100286.48;;;6.36;55.52
61436;BME280;47304;47.456;19.160;2023-04-03T06:41:53;100283.42;;;6.40;55.25
61436;BME280;47304;47.456;19.160;2023-04-03T06:44:23;100289.54;;;6.42;54.92
61436;BME280;47304;47.456;19.160;2023-04-03T06:46:49;100289.04;;;6.45;55.02
61436;BME280;47304;47.456;19.160;2023-04-03T06:49:16;100291.05;;;6.50;54.81
61436;BME280;47304;47.456;19.160;2023-04-03T06:51:43;100293.06;;;6.57;54.69
61436;BME280;47304;47.456;19.160;2023-04-03T06:54:10;100296.27;;;6.62;54.64
61436;BME280;47304;47.456;19.160;2023-04-03T06:56:36;100297.54;;;6.65;54.48
61436;BME280;47304;47.456;19.160;2023-04-03T06:59:03;100298.96;;;6.68;54.31
61436;BME280;47304;47.456;19.160;2023-04-03T07:01:30;100298.14;;;6.70;54.29
61436;BME280;47304;47.456;19.160;2023-04-03T07:03:57;100303.06;;;6.74;54.14
61436;BME280;47304;47.456;19.160;2023-04-03T07:06:26;100305.59;;;6.81;54.20
61436;BME280;47304;47.456;19.160;2023-04-03T07:08:54;100306.91;;;6.89;54.00
61436;BME280;47304;47.456;19.160;2023-04-03T07:11:20;100307.56;;;6.98;53.53
61436;BME280;47304;47.456;19.160;2023-04-03T07:13:47;100301.81;;;7.12;53.16
61436;BME280;47304;47.456;19.160;2023-04-03T07:16:13;100303.48;;;7.21;52.55
61436;BME280;47304;47.456;19.160;2023-04-03T07:18:40;100308.80;;;7.27;52.41
61436;BME280;47304;47.456;19.160;2023-04-03T07:21:07;100304.18;;;7.35;52.44
61436;BME280;47304;47.456;19.160;2023-04-03T07:23:34;100309.86;;;7.43;52.20
61436;BME280;47304;47.456;19.160;2023-04-03T07:26:00;100313.98;;;7.55;52.24
61436;BME280;47304;47.456;19.160;2023-04-03T07:28:27;100309.23;;;7.66;51.99
61436;BME280;47304;47.456;19.160;2023-04-03T07:31:05;100314.93;;;7.78;51.54
61436;BME280;47304;47.456;19.160;2023-04-03T07:33:32;100316.47;;;7.92;51.42
61436;BME280;47304;47.456;19.160;2023-04-03T07:35:59;100319.39;;;8.06;50.92
61436;BME280;47304;47.456;19.160;2023-04-03T07:38:25;100319.48;;;8.17;50.69
61436;BME280;47304;47.456;19.160;2023-04-03T07:40:53;100321.67;;;8.28;49.88
61436;BME280;47304;47.456;19.160;2023-04-03T07:43:21;100320.64;;;8.32;49.16
61436;BME280;47304;47.456;19.160;2023-04-03T07:45:48;100319.44;;;8.34;49.48
61436;BME280;47304;47.456;19.160;2023-04-03T07:48:23;100320.20;;;8.42;49.65
61436;BME280;47304;47.456;19.160;2023-04-03T07:50:50;100323.83;;;8.57;49.95
61436;BME280;47304;47.456;19.160;2023-04-03T07:53:17;100324.80;;;8.69;49.34
61436;BME280;47304;47.456;19.160;2023-04-03T07:55:48;100327.30;;;8.79;48.88
61436;BME280;47304;47.456;19.160;2023-04-03T07:58:17;100326.14;;;8.90;49.18
61436;BME280;47304;47.456;19.160;2023-04-03T08:00:45;100325.34;;;9.02;48.79
61436;BME280;47304;47.456;19.160;2023-04-03T08:03:14;100323.82;;;9.15;48.34
61436;BME280;47304;47.456;19.160;2023-04-03T08:05:45;100327.00;;;9.22;47.94
61436;BME280;47304;47.456;19.160;2023-04-03T08:08:18;100331.91;;;9.28;47.49
61436;BME280;47304;47.456;19.160;2023-04-03T08:10:51;100332.64;;;9.30;47.22
61436;BME280;47304;47.456;19.160;2023-04-03T08:13:19;100331.77;;;9.33;47.13
61436;BME280;47304;47.456;19.160;2023-04-03T08:15:48;100336.17;;;9.44;47.49
61436;BME280;47304;47.456;19.160;2023-04-03T08:18:15;100338.15;;;9.58;47.44
61436;BME280;47304;47.456;19.160;2023-04-03T08:20:43;100334.83;;;9.65;46.55
61436;BME280;47304;47.456;19.160;2023-04-03T08:23:10;100336.40;;;9.60;46.17
61436;BME280;47304;47.456;19.160;2023-04-03T08:25:40;100337.45;;;9.59;46.75
61436;BME280;47304;47.456;19.160;2023-04-03T08:28:08;100346.20;;;9.61;46.31
61436;BME280;47304;47.456;19.160;2023-04-03T08:30:35;100344.30;;;9.66;46.77
61436;BME280;47304;47.456;19.160;2023-04-03T08:33:02;100348.69;;;9.72;46.33
61436;BME280;47304;47.456;19.160;2023-04-03T08:35:29;100347.30;;;9.73;45.85
61436;BME280;47304;47.456;19.160;2023-04-03T08:37:56;100343.44;;;9.73;45.42
61436;BME280;47304;47.456;19.160;2023-04-03T08:40:23;100352.00;;;9.68;45.73
61436;BME280;47304;47.456;19.160;2023-04-03T08:45:27;100348.17;;;9.75;45.89
61436;BME280;47304;47.456;19.160;2023-04-03T08:48:05;100348.70;;;9.81;46.21
61436;BME280;47304;47.456;19.160;2023-04-03T08:50:39;100346.80;;;9.90;46.32
61436;BME280;47304;47.456;19.160;2023-04-03T08:53:12;100346.82;;;9.99;46.34
61436;BME280;47304;47.456;19.160;2023-04-03T08:55:44;100350.86;;;10.09;46.03
61436;BME280;47304;47.456;19.160;2023-04-03T08:58:15;100348.95;;;10.18;44.99
61436;BME280;47304;47.456;19.160;2023-04-03T09:00:56;100348.75;;;10.16;45.17
61436;BME280;47304;47.456;19.160;2023-04-03T09:03:24;100344.05;;;10.23;45.18
61436;BME280;47304;47.456;19.160;2023-04-03T09:08:27;100353.02;;;10.46;44.90
61436;BME280;47304;47.456;19.160;2023-04-03T09:11:20;100350.38;;;10.49;44.27
61436;BME280;47304;47.456;19.160;2023-04-03T09:13:57;100346.35;;;10.63;44.90
61436;BME280;47304;47.456;19.160;2023-04-03T09:18:59;100345.39;;;11.08;44.18
61436;BME280;47304;47.456;19.160;2023-04-03T09:21:36;100349.16;;;11.33;44.41
61436;BME280;47304;47.456;19.160;2023-04-03T09:24:05;100347.85;;;11.54;44.28
61436;BME280;47304;47.456;19.160;2023-04-03T09:26:42;100347.59;;;11.68;43.22
61436;BME280;47304;47.456;19.160;2023-04-03T09:29:14;100350.16;;;11.79;42.85
61436;BME280;47304;47.456;19.160;2023-04-03T09:31:44;100349.42;;;11.85;42.04
61436;BME280;47304;47.456;19.160;2023-04-03T09:34:27;100347.89;;;11.78;41.60
61436;BME280;47304;47.456;19.160;2023-04-03T09:36:55;100348.64;;;11.68;41.45
61436;BME280;47304;47.456;19.160;2023-04-03T09:39:28;100349.05;;;11.55;41.61
61436;BME280;47304;47.456;19.160;2023-04-03T09:44:27;100353.57;;;11.25;42.14
61436;BME280;47304;47.456;19.160;2023-04-03T09:46:54;100345.89;;;11.13;41.90
61436;BME280;47304;47.456;19.160;2023-04-03T09:49:21;100344.52;;;11.03;42.18
61436;BME280;47304;47.456;19.160;2023-04-03T09:51:48;100344.19;;;10.91;42.10
61436;BME280;47304;47.456;19.160;2023-04-03T09:54:44;100343.86;;;10.83;42.30
61436;BME280;47304;47.456;19.160;2023-04-03T09:57:14;100345.42;;;10.94;42.82
61436;BME280;47304;47.456;19.160;2023-04-03T09:59:58;100343.43;;;11.15;43.14
61436;BME280;47304;47.456;19.160;2023-04-03T10:02:36;100339.13;;;11.42;41.89
61436;BME280;47304;47.456;19.160;2023-04-03T10:05:33;100338.14;;;11.63;42.06
61436;BME280;47304;47.456;19.160;2023-04-03T10:10:47;100342.66;;;12.69;41.51
61436;BME280;47304;47.456;19.160;2023-04-03T10:13:18;100338.85;;;13.14;41.41
61436;BME280;47304;47.456;19.160;2023-04-03T10:16:01;100333.71;;;13.75;40.88
61436;BME280;47304;47.456;19.160;2023-04-03T10:18:37;100329.59;;;14.15;40.12
61436;BME280;47304;47.456;19.160;2023-04-03T10:21:12;100327.98;;;14.39;38.64
61436;BME280;47304;47.456;19.160;2023-04-03T10:29:54;100325.97;;;15.79;36.32
61436;BME280;47304;47.456;19.160;2023-04-03T10:35:25;100327.65;;;15.07;35.58
61436;BME280;47304;47.456;19.160;2023-04-03T10:38:09;100330.60;;;14.62;36.37
61436;BME280;47304;47.456;19.160;2023-04-03T10:43:50;100328.35;;;13.80;36.97
61436;BME280;47304;47.456;19.160;2023-04-03T10:46:33;100332.23;;;13.54;37.35
61436;BME280;47304;47.456;19.160;2023-04-03T10:54:11;100333.11;;;12.75;37.11
61436;BME280;47304;47.456;19.160;2023-04-03T10:56:56;100330.80;;;12.60;37.20
61436;BME280;47304;47.456;19.160;2023-04-03T10:59:50;100331.09;;;12.48;36.99
61436;BME280;47304;47.456;19.160;2023-04-03T11:02:33;100334.75;;;12.28;37.04
61436;BME280;47304;47.456;19.160;2023-04-03T11:05:15;100336.05;;;12.20;37.37
61436;BME280;47304;47.456;19.160;2023-04-03T11:07:51;100336.09;;;12.16;37.57
61436;BME280;47304;47.456;19.160;2023-04-03T11:10:36;100331.45;;;12.00;37.36
61436;BME280;47304;47.456;19.160;2023-04-03T11:13:11;100327.68;;;11.81;37.67
61436;BME280;47304;47.456;19.160;2023-04-03T11:15:40;100322.17;;;11.63;37.87
61436;BME280;47304;47.456;19.160;2023-04-03T11:18:15;100323.80;;;11.55;38.52
61436;BME280;47304;47.456;19.160;2023-04-03T11:20:58;100322.77;;;11.51;38.45
61436;BME280;47304;47.456;19.160;2023-04-03T11:23:40;100318.94;;;11.44;38.11
61436;BME280;47304;47.456;19.160;2023-04-03T11:26:24;100318.44;;;11.39;38.54
61436;BME280;47304;47.456;19.160;2023-04-03T11:29:01;100309.83;;;11.44;39.25
61436;BME280;47304;47.456;19.160;2023-04-03T11:31:38;100301.87;;;11.55;40.12
61436;BME280;47304;47.456;19.160;2023-04-03T11:34:44;100301.63;;;11.65;39.46
61436;BME280;47304;47.456;19.160;2023-04-03T11:37:33;100305.91;;;11.81;39.81
61436;BME280;47304;47.456;19.160;2023-04-03T11:40:07;100301.60;;;12.01;39.25
61436;BME280;47304;47.456;19.160;2023-04-03T11:42:52;100302.67;;;12.42;37.37
61436;BME280;47304;47.456;19.160;2023-04-03T11:45:50;100301.36;;;12.70;37.25
61436;BME280;47304;47.456;19.160;2023-04-03T11:50:50;100294.11;;;13.05;36.72
61436;BME280;47304;47.456;19.160;2023-04-03T11:53:36;100293.02;;;13.08;36.98
61436;BME280;47304;47.456;19.160;2023-04-03T12:01:54;100289.02;;;13.04;36.41
61436;BME280;47304;47.456;19.160;2023-04-03T12:04:24;100288.91;;;12.98;35.95
61436;BME280;47304;47.456;19.160;2023-04-03T12:07:12;100290.08;;;12.89;35.87
61436;BME280;47304;47.456;19.160;2023-04-03T12:12:38;100287.23;;;12.76;36.13
61436;BME280;47304;47.456;19.160;2023-04-03T12:17:50;100284.68;;;12.67;36.74
61436;BME280;47304;47.456;19.160;2023-04-03T12:23:32;100280.27;;;12.51;37.26
61436;BME280;47304;47.456;19.160;2023-04-03T12:26:24;100274.58;;;12.41;38.45
61436;BME280;47304;47.456;19.160;2023-04-03T12:29:14;100277.61;;;12.36;37.78
61436;BME280;47304;47.456;19.160;2023-04-03T12:40:21;100284.06;;;11.99;38.14
61436;BME280;47304;47.456;19.160;2023-04-03T12:43:25;100278.61;;;12.00;38.84
61436;BME280;47304;47.456;19.160;2023-04-03T12:48:30;100276.28;;;12.06;38.22
61436;BME280;47304;47.456;19.160;2023-04-03T12:50:59;100275.98;;;11.99;38.13
61436;BME280;47304;47.456;19.160;2023-04-03T12:53:35;100274.08;;;11.98;38.12
61436;BME280;47304;47.456;19.160;2023-04-03T12:56:38;100272.48;;;11.96;37.89
61436;BME280;47304;47.456;19.160;2023-04-03T13:01:41;100271.88;;;11.81;38.35
61436;BME280;47304;47.456;19.160;2023-04-03T13:04:10;100264.48;;;11.85;38.33
61436;BME280;47304;47.456;19.160;2023-04-03T13:06:40;100267.80;;;11.88;38.74
61436;BME280;47304;47.456;19.160;2023-04-03T13:11:45;100258.77;;;12.00;37.64
61436;BME280;47304;47.456;19.160;2023-04-03T13:14:23;100257.89;;;12.01;37.69
61436;BME280;47304;47.456;19.160;2023-04-03T13:19:27;100250.72;;;11.98;38.30
61436;BME280;47304;47.456;19.160;2023-04-03T13:22:02;100248.92;;;12.04;38.28
61436;BME280;47304;47.456;19.160;2023-04-03T13:24:33;100247.12;;;12.09;37.95
61436;BME280;47304;47.456;19.160;2023-04-03T13:27:02;100242.85;;;12.14;37.25
61436;BME280;47304;47.456;19.160;2023-04-03T13:29:32;100246.49;;;12.20;37.00
61436;BME280;47304;47.456;19.160;2023-04-03T13:32:00;100249.47;;;12.21;37.56
61436;BME280;47304;47.456;19.160;2023-04-03T13:34:41;100247.00;;;12.22;37.46
61436;BME280;47304;47.456;19.160;2023-04-03T13:37:28;100246.62;;;12.25;37.66
61436;BME280;47304;47.456;19.160;2023-04-03T13:40:11;100241.39;;;12.20;37.04
61436;BME280;47304;47.456;19.160;2023-04-03T13:42:40;100237.70;;;12.20;36.98
61436;BME280;47304;47.456;19.160;2023-04-03T13:45:25;100236.64;;;12.22;36.90
61436;BME280;47304;47.456;19.160;2023-04-03T13:47:53;100233.59;;;12.28;36.86
61436;BME280;47304;47.456;19.160;2023-04-03T13:50:22;100228.22;;;12.39;37.24
61436;BME280;47304;47.456;19.160;2023-04-03T13:52:55;100225.83;;;12.50;37.41
61436;BME280;47304;47.456;19.160;2023-04-03T13:55:28;100216.47;;;12.54;35.61
61436;BME280;47304;47.456;19.160;2023-04-03T13:58:16;100212.81;;;12.51;35.55
61436;BME280;47304;47.456;19.160;2023-04-03T14:00:58;100214.13;;;12.59;36.15
61436;BME280;47304;47.456;19.160;2023-04-03T14:03:44;100215.45;;;12.81;35.96
61436;BME280;47304;47.456;19.160;2023-04-03T14:06:14;100214.09;;;13.05;35.53
61436;BME280;47304;47.456;19.160;2023-04-03T14:08:42;100210.44;;;13.16;35.34
61436;BME280;47304;47.456;19.160;2023-04-03T14:11:18;100207.16;;;13.24;35.50
61436;BME280;47304;47.456;19.160;2023-04-03T14:13:46;100209.13;;;13.35;35.76
61436;BME280;47304;47.456;19.160;2023-04-03T14:16:22;100207.77;;;13.45;36.23
61436;BME280;47304;47.456;19.160;2023-04-03T14:18:49;100206.65;;;13.50;36.69